createdAt,value
2023-01-30T00:01:40.121Z,16.52
2023-01-30T00:04:07.325Z,17.10
2023-01-30T00:06:34.220Z,17.52
2023-01-30T00:09:01.066Z,16.38
2023-01-30T00:11:30.376Z,17.60
2023-01-30T00:14:00.803Z,16.98
2023-01-30T00:16:27.520Z,17.35
2023-01-30T00:18:54.850Z,18.58
2023-01-30T00:21:21.635Z,18.50
2023-01-30T00:23:48.260Z,19.05
2023-01-30T00:26:15.256Z,19.48
2023-01-30T00:28:42.121Z,19.27
2023-01-30T00:31:09.781Z,19.98
2023-01-30T00:33:37.836Z,19.35
2023-01-30T00:36:05.758Z,19.67
2023-01-30T00:38:32.536Z,20.30
2023-01-30T00:40:59.090Z,20.35
2023-01-30T00:43:44.593Z,19.65
2023-01-30T00:46:45.494Z,20.35
2023-01-30T00:49:12.944Z,20.92
2023-01-30T00:51:39.907Z,20.00
2023-01-30T00:54:06.758Z,20.50
2023-01-30T00:56:33.805Z,20.60
2023-01-30T00:59:00.773Z,21.25
2023-01-30T01:01:27.428Z,20.70
2023-01-30T01:03:54.128Z,20.42
2023-01-30T01:06:20.769Z,19.52
2023-01-30T01:08:47.592Z,19.73
2023-01-30T01:11:24.683Z,19.50
2023-01-30T01:14:02.235Z,20.45
2023-01-30T01:16:30.244Z,19.77
2023-01-30T01:18:56.958Z,19.58
2023-01-30T01:21:23.996Z,18.48
2023-01-30T01:23:52.029Z,18.10
2023-01-30T01:26:19.410Z,20.25
2023-01-30T01:28:46.310Z,19.90
2023-01-30T01:31:14.957Z,19.52
2023-01-30T01:33:41.695Z,19.85
2023-01-30T01:36:09.168Z,19.08
2023-01-30T01:38:35.805Z,18.48
2023-01-30T01:41:02.439Z,19.02
2023-01-30T01:43:32.440Z,18.92
2023-01-30T01:46:12.589Z,19.52
2023-01-30T01:48:42.506Z,19.35
2023-01-30T01:51:13.479Z,19.05
2023-01-30T01:53:46.392Z,18.25
2023-01-30T01:56:15.243Z,18.92
2023-01-30T01:58:48.498Z,18.85
2023-01-30T02:01:15.651Z,17.90
2023-01-30T02:03:46.327Z,19.02
2023-01-30T02:06:14.873Z,17.90
2023-01-30T02:08:45.914Z,18.67
2023-01-30T02:11:35.385Z,17.70
2023-01-30T02:14:02.770Z,18.67
2023-01-30T02:16:29.504Z,18.35
2023-01-30T02:18:56.149Z,18.27
2023-01-30T02:22:08.980Z,17.58
2023-01-30T02:25:23.012Z,17.00
2023-01-30T02:28:27.641Z,17.85
2023-01-30T02:31:19.161Z,18.50
2023-01-30T02:34:11.987Z,17.60
2023-01-30T02:37:31.254Z,17.30
2023-01-30T02:40:50.414Z,16.90
2023-01-30T02:43:25.320Z,16.27
2023-01-30T02:45:58.789Z,16.95
2023-01-30T02:48:35.270Z,17.27
2023-01-30T02:51:06.335Z,17.02
2023-01-30T02:53:34.038Z,16.85
2023-01-30T02:56:01.575Z,16.83
2023-01-30T02:58:33.319Z,16.05
2023-01-30T03:01:16.915Z,16.92
2023-01-30T03:04:18.670Z,15.70
2023-01-30T03:07:37.788Z,16.90
2023-01-30T03:10:24.406Z,16.63
2023-01-30T03:13:09.570Z,17.38
2023-01-30T03:15:42.616Z,17.30
2023-01-30T03:18:09.745Z,17.10
2023-01-30T03:20:38.340Z,16.85
2023-01-30T03:23:05.096Z,16.10
2023-01-30T03:25:32.509Z,16.98
2023-01-30T03:28:00.257Z,17.48
2023-01-30T03:30:27.181Z,16.65
2023-01-30T03:32:53.812Z,15.70
2023-01-30T03:35:20.618Z,17.10
2023-01-30T03:37:47.602Z,17.08
2023-01-30T03:40:16.484Z,16.35
2023-01-30T03:42:43.342Z,16.65
2023-01-30T03:45:11.317Z,15.77
2023-01-30T03:47:37.975Z,16.48
2023-01-30T03:50:05.014Z,16.77
2023-01-30T03:52:32.028Z,16.85
2023-01-30T03:55:00.212Z,16.08
2023-01-30T03:57:27.015Z,16.38
2023-01-30T03:59:54.077Z,16.20
2023-01-30T04:02:23.374Z,17.27
2023-01-30T04:04:50.154Z,17.08
2023-01-30T04:07:17.882Z,17.05
2023-01-30T04:09:44.954Z,16.70
2023-01-30T04:12:11.701Z,18.25
2023-01-30T04:14:38.337Z,18.58
2023-01-30T04:17:05.391Z,19.00
2023-01-30T04:19:32.095Z,19.30
2023-01-30T04:21:58.727Z,18.73
2023-01-30T04:24:25.332Z,18.08
2023-01-30T04:26:52.154Z,18.05
2023-01-30T04:29:19.410Z,18.45
2023-01-30T04:31:46.131Z,18.15
2023-01-30T04:34:12.823Z,18.00
2023-01-30T04:36:39.957Z,19.02
2023-01-30T04:39:06.629Z,18.20
2023-01-30T04:41:33.343Z,20.15
2023-01-30T04:44:00.000Z,19.25
2023-01-30T04:46:26.644Z,18.15
2023-01-30T04:48:53.369Z,18.50
2023-01-30T04:51:20.307Z,19.20
2023-01-30T04:53:46.947Z,19.80
2023-01-30T04:56:13.581Z,20.15
2023-01-30T04:58:40.218Z,19.73
2023-01-30T05:01:15.256Z,17.45
2023-01-30T05:03:41.885Z,15.48
2023-01-30T05:06:08.529Z,12.95
2023-01-30T05:08:35.393Z,13.15
2023-01-30T05:11:02.005Z,15.95
2023-01-30T05:13:28.653Z,14.57
2023-01-30T05:15:55.493Z,13.50
2023-01-30T05:18:22.107Z,14.52
2023-01-30T05:20:48.798Z,15.18
2023-01-30T05:23:15.451Z,15.90
2023-01-30T05:25:42.200Z,15.25
2023-01-30T05:28:08.885Z,15.52
2023-01-30T05:30:35.617Z,15.60
2023-01-30T05:33:02.349Z,16.13
2023-01-30T05:35:29.413Z,15.50
2023-01-30T05:37:56.216Z,15.35
2023-01-30T05:40:22.835Z,14.18
2023-01-30T05:42:49.447Z,14.38
2023-01-30T05:45:16.521Z,12.40
2023-01-30T05:47:43.376Z,11.82
2023-01-30T05:50:11.144Z,12.52
2023-01-30T05:52:37.722Z,11.95
2023-01-30T05:55:04.605Z,11.60
2023-01-30T05:57:31.252Z,11.18
2023-01-30T05:59:57.936Z,10.80
2023-01-30T06:02:24.629Z,10.50
2023-01-30T06:04:51.242Z,10.00
2023-01-30T06:07:17.875Z,9.10
2023-01-30T06:09:44.501Z,9.60
2023-01-30T06:12:11.131Z,9.02
2023-01-30T06:14:37.764Z,10.43
2023-01-30T06:17:04.480Z,10.32
2023-01-30T06:19:31.350Z,9.95
2023-01-30T06:21:58.096Z,9.70
2023-01-30T06:24:24.721Z,9.90
2023-01-30T06:26:51.550Z,9.65
2023-01-30T06:29:18.466Z,8.90
2023-01-30T06:31:45.162Z,9.70
2023-01-30T06:34:12.326Z,10.00
2023-01-30T06:36:38.927Z,8.73
2023-01-30T06:39:05.560Z,9.30
2023-01-30T06:41:32.135Z,9.38
2023-01-30T06:43:58.727Z,9.63
2023-01-30T06:46:25.375Z,9.88
2023-01-30T06:48:52.206Z,9.38
2023-01-30T06:51:18.870Z,9.00
2023-01-30T06:53:45.639Z,8.85
2023-01-30T06:56:12.347Z,9.02
2023-01-30T06:58:39.024Z,8.57
2023-01-30T07:01:05.889Z,8.38
2023-01-30T07:03:32.504Z,8.00
2023-01-30T07:05:59.150Z,8.23
2023-01-30T07:08:25.975Z,8.10
2023-01-30T07:10:52.976Z,8.40
2023-01-30T07:13:19.729Z,7.90
2023-01-30T07:15:47.169Z,8.20
2023-01-30T07:18:14.011Z,8.13
2023-01-30T07:20:42.329Z,8.85
2023-01-30T07:23:08.972Z,8.27
2023-01-30T07:25:35.587Z,8.85
2023-01-30T07:28:03.182Z,8.35
2023-01-30T07:30:32.389Z,8.55
2023-01-30T07:32:59.925Z,8.25
2023-01-30T07:35:28.777Z,8.02
2023-01-30T07:37:55.613Z,8.38
2023-01-30T07:40:22.606Z,8.23
2023-01-30T07:42:59.790Z,7.70
2023-01-30T07:45:29.492Z,8.45
2023-01-30T07:47:56.115Z,8.48
2023-01-30T07:50:22.777Z,8.18
2023-01-30T07:52:49.444Z,7.53
2023-01-30T07:55:16.582Z,6.75
2023-01-30T07:57:43.468Z,7.18
2023-01-30T08:00:11.075Z,7.93
2023-01-30T08:02:38.347Z,8.15
2023-01-30T08:05:06.347Z,6.93
2023-01-30T08:07:33.190Z,7.88
2023-01-30T08:10:00.106Z,7.72
2023-01-30T08:12:26.784Z,7.80
2023-01-30T08:14:53.505Z,7.50
2023-01-30T08:17:20.168Z,7.32
2023-01-30T08:19:46.802Z,7.50
2023-01-30T08:22:14.678Z,7.80
2023-01-30T08:24:41.481Z,7.88
2023-01-30T08:27:08.167Z,6.70
2023-01-30T08:29:34.863Z,7.00
2023-01-30T08:32:01.827Z,6.05
2023-01-30T08:34:28.561Z,6.40
2023-01-30T08:36:55.203Z,6.72
2023-01-30T08:39:21.857Z,6.63
2023-01-30T08:41:48.621Z,6.85
2023-01-30T08:44:15.286Z,5.70
2023-01-30T08:46:42.008Z,6.25
2023-01-30T08:49:08.622Z,5.07
2023-01-30T08:51:35.420Z,5.85
2023-01-30T08:54:02.115Z,5.70
2023-01-30T08:56:29.495Z,5.85
2023-01-30T08:58:56.431Z,6.03
2023-01-30T09:01:23.204Z,6.65
2023-01-30T09:03:49.993Z,6.30
2023-01-30T09:06:16.766Z,6.45
2023-01-30T09:08:43.376Z,5.63
2023-01-30T09:11:11.290Z,6.10
2023-01-30T09:13:41.247Z,6.05
2023-01-30T09:16:07.886Z,6.30
2023-01-30T09:18:34.543Z,5.90
2023-01-30T09:21:04.980Z,6.43
2023-01-30T09:23:32.056Z,6.60
2023-01-30T09:25:58.739Z,5.88
2023-01-30T09:28:25.459Z,5.90
2023-01-30T09:30:52.207Z,5.75
2023-01-30T09:33:20.560Z,5.70
2023-01-30T09:35:48.451Z,5.50
2023-01-30T09:38:16.020Z,4.75
2023-01-30T09:40:58.915Z,5.20
2023-01-30T09:43:49.281Z,5.63
2023-01-30T09:46:30.419Z,5.10
2023-01-30T09:49:17.645Z,5.10
2023-01-30T09:52:04.430Z,4.68
2023-01-30T09:54:33.720Z,5.15
2023-01-30T09:57:32.613Z,4.68
2023-01-30T10:00:20.679Z,4.85
2023-01-30T10:03:20.476Z,4.82
2023-01-30T10:05:49.736Z,4.50
2023-01-30T10:09:03.202Z,4.15
2023-01-30T10:11:50.496Z,4.43
2023-01-30T10:14:49.889Z,4.20
2023-01-30T10:17:58.137Z,4.88
2023-01-30T10:20:44.057Z,4.18
2023-01-30T10:23:57.593Z,4.40
2023-01-30T10:26:27.002Z,5.28
2023-01-30T10:29:07.260Z,5.32
2023-01-30T10:31:43.278Z,4.82
2023-01-30T10:34:12.884Z,4.45
2023-01-30T10:36:44.042Z,4.60
2023-01-30T10:39:31.704Z,4.90
2023-01-30T10:42:13.315Z,5.05
2023-01-30T10:44:43.101Z,4.80
2023-01-30T10:47:47.323Z,4.95
2023-01-30T10:50:20.342Z,4.40
2023-01-30T10:52:53.368Z,4.70
2023-01-30T10:55:37.296Z,4.82
2023-01-30T10:58:43.008Z,4.93
2023-01-30T11:01:19.075Z,4.78
2023-01-30T11:03:48.834Z,5.20
2023-01-30T11:06:18.263Z,5.18
2023-01-30T11:08:45.267Z,4.95
2023-01-30T11:11:33.914Z,5.15
2023-01-30T11:14:09.219Z,4.75
2023-01-30T11:16:45.774Z,3.97
2023-01-30T11:19:22.273Z,3.47
2023-01-30T11:21:52.172Z,4.78
2023-01-30T11:24:25.175Z,5.10
2023-01-30T11:26:53.313Z,4.75
2023-01-30T11:29:31.582Z,5.40
2023-01-30T11:32:25.413Z,6.28
2023-01-30T11:35:04.640Z,6.50
2023-01-30T11:37:32.575Z,5.40
2023-01-30T11:39:59.312Z,5.60
2023-01-30T11:42:31.176Z,5.45
2023-01-30T11:45:16.169Z,5.07
2023-01-30T11:47:57.890Z,5.28
2023-01-30T11:50:34.110Z,5.13
2023-01-30T11:53:04.485Z,5.50
2023-01-30T11:55:34.212Z,4.45
2023-01-30T11:58:01.264Z,3.80
2023-01-30T12:00:38.884Z,3.80
2023-01-30T12:03:07.037Z,3.83
2023-01-30T12:05:35.735Z,3.88
2023-01-30T12:08:39.353Z,4.13
2023-01-30T12:11:25.982Z,4.35
2023-01-30T12:13:55.342Z,4.60
2023-01-30T12:16:50.879Z,4.45
2023-01-30T12:19:29.627Z,4.28
2023-01-30T12:22:05.916Z,3.63
2023-01-30T12:24:46.581Z,4.10
2023-01-30T12:27:18.055Z,4.13
2023-01-30T12:29:55.892Z,4.57
2023-01-30T12:32:27.086Z,3.53
2023-01-30T12:34:53.800Z,3.38
2023-01-30T12:38:25.543Z,3.30
2023-01-30T12:41:46.614Z,3.17
2023-01-30T12:44:21.691Z,3.17
2023-01-30T12:47:47.085Z,2.92
2023-01-30T12:50:26.649Z,3.42
2023-01-30T12:53:25.266Z,2.90
2023-01-30T12:56:16.192Z,2.85
2023-01-30T12:58:52.258Z,2.75
2023-01-30T13:01:49.325Z,2.60
2023-01-30T13:04:56.449Z,2.58
2023-01-30T13:07:41.701Z,2.30
2023-01-30T13:10:16.252Z,2.50
2023-01-30T13:12:51.647Z,2.22
2023-01-30T13:15:32.732Z,2.40
2023-01-30T13:18:10.996Z,1.85
2023-01-30T13:21:00.696Z,2.00
2023-01-30T13:23:50.693Z,1.80
2023-01-30T13:26:21.517Z,2.10
2023-01-30T13:29:00.296Z,1.90
2023-01-30T13:31:30.976Z,1.90
2023-01-30T13:34:07.350Z,1.80
2023-01-30T13:36:46.012Z,1.42
2023-01-30T13:41:50.389Z,1.77
2023-01-30T13:44:31.142Z,1.87
2023-01-30T13:47:00.252Z,1.50
2023-01-30T13:49:58.374Z,1.10
2023-01-30T13:52:52.721Z,1.40
2023-01-30T13:55:34.121Z,1.55
2023-01-30T13:58:25.328Z,1.60
2023-01-30T14:00:55.652Z,1.75
2023-01-30T14:03:29.626Z,1.33
2023-01-30T14:08:39.313Z,1.25
2023-01-30T14:11:35.114Z,1.30
2023-01-30T14:14:41.128Z,1.13
2023-01-30T14:17:11.560Z,1.35
2023-01-30T14:19:48.777Z,1.67
2023-01-30T14:22:47.324Z,1.38
2023-01-30T14:25:23.696Z,1.70
2023-01-30T14:28:01.375Z,1.77
2023-01-30T14:30:48.260Z,1.25
2023-01-30T14:33:34.368Z,1.40
2023-01-30T14:36:33.678Z,1.95
2023-01-30T14:39:38.890Z,1.42
2023-01-30T14:45:05.531Z,1.40
2023-01-30T14:47:40.529Z,1.63
2023-01-30T14:50:23.514Z,1.10
2023-01-30T14:52:50.971Z,1.52
2023-01-30T14:55:24.375Z,1.77
2023-01-30T14:58:15.557Z,1.80
2023-01-30T15:00:42.319Z,1.27
2023-01-30T15:03:17.240Z,1.50
2023-01-30T15:05:44.967Z,1.60
2023-01-30T15:08:18.467Z,2.30
2023-01-30T15:11:06.001Z,1.65
2023-01-30T15:14:05.329Z,1.40
2023-01-30T15:16:48.428Z,1.20
2023-01-30T15:19:45.532Z,1.50
2023-01-30T15:22:31.462Z,1.52
2023-01-30T15:25:36.826Z,1.42
2023-01-30T15:28:12.507Z,1.90
2023-01-30T15:30:50.897Z,1.45
2023-01-30T15:33:30.911Z,1.50
2023-01-30T15:35:58.417Z,1.40
2023-01-30T15:38:34.483Z,1.30
2023-01-30T15:41:02.727Z,1.70
2023-01-30T15:43:48.652Z,1.33
2023-01-30T15:46:48.121Z,1.65
2023-01-30T15:49:57.407Z,1.92
2023-01-30T15:52:29.183Z,1.55
2023-01-30T15:54:57.473Z,2.88
2023-01-30T15:57:30.512Z,1.40
2023-01-30T15:59:57.875Z,1.30
2023-01-30T16:02:42.573Z,1.05
2023-01-30T16:05:20.781Z,6.05
2023-01-30T16:07:50.110Z,0.80
2023-01-30T16:10:19.831Z,0.80
2023-01-30T16:12:47.667Z,1.15
2023-01-30T16:15:41.478Z,1.00
2023-01-30T16:18:23.473Z,1.20
2023-01-30T16:21:02.071Z,0.98
2023-01-30T16:23:43.694Z,1.00
2023-01-30T16:26:18.233Z,0.88
2023-01-30T16:28:45.515Z,0.98
2023-01-30T16:31:12.451Z,1.10
2023-01-30T16:33:39.249Z,0.70
2023-01-30T16:36:27.361Z,1.02
2023-01-30T16:38:55.654Z,1.23
2023-01-30T16:41:35.278Z,1.10
2023-01-30T16:44:22.198Z,0.90
2023-01-30T16:47:27.935Z,0.82
2023-01-30T16:49:56.207Z,1.05
2023-01-30T16:52:29.413Z,1.20
2023-01-30T16:55:01.692Z,0.90
2023-01-30T16:57:41.995Z,1.27
2023-01-30T17:00:34.732Z,0.95
2023-01-30T17:03:05.220Z,1.00
2023-01-30T17:05:39.696Z,0.93
2023-01-30T17:08:45.162Z,1.00
2023-01-30T17:11:29.581Z,0.90
2023-01-30T17:16:46.440Z,1.30
2023-01-30T17:19:14.284Z,1.17
2023-01-30T17:21:49.696Z,1.40
2023-01-30T17:24:19.802Z,1.10
2023-01-30T17:26:52.789Z,2.47
2023-01-30T17:29:41.321Z,1.75
2023-01-30T17:32:12.226Z,0.90
2023-01-30T17:34:41.546Z,2.50
2023-01-30T17:37:20.445Z,1.17
2023-01-30T17:39:47.743Z,1.45
2023-01-30T17:42:15.482Z,1.65
2023-01-30T17:44:42.132Z,1.65
2023-01-30T17:47:11.605Z,1.95
2023-01-30T17:49:38.441Z,1.90
2023-01-30T17:52:05.513Z,1.60
2023-01-30T17:54:32.392Z,2.03
2023-01-30T17:57:07.150Z,1.85
2023-01-30T17:59:33.896Z,2.08
2023-01-30T18:02:00.734Z,1.75
2023-01-30T18:04:27.600Z,1.55
2023-01-30T18:06:59.261Z,1.65
2023-01-30T18:09:27.109Z,1.70
2023-01-30T18:11:53.805Z,1.73
2023-01-30T18:14:22.180Z,2.28
2023-01-30T18:16:49.644Z,2.83
2023-01-30T18:19:24.321Z,2.03
2023-01-30T18:21:51.468Z,1.95
2023-01-30T18:24:18.654Z,2.20
2023-01-30T18:26:46.413Z,3.08
2023-01-30T18:29:13.590Z,1.98
2023-01-30T18:31:41.320Z,2.22
2023-01-30T18:34:10.045Z,1.58
2023-01-30T18:36:37.256Z,2.50
2023-01-30T18:39:05.429Z,2.03
2023-01-30T18:41:32.057Z,2.88
2023-01-30T18:44:03.619Z,2.83
2023-01-30T18:46:30.534Z,2.70
2023-01-30T18:48:58.015Z,2.63
2023-01-30T18:51:27.312Z,3.30
2023-01-30T18:53:54.910Z,2.70
2023-01-30T18:56:31.420Z,2.97
2023-01-30T18:59:02.428Z,2.78
2023-01-30T19:01:31.368Z,2.70
2023-01-30T19:04:00.388Z,2.92
2023-01-30T19:06:28.160Z,2.30
2023-01-30T19:08:56.138Z,2.80
2023-01-30T19:11:41.480Z,2.80
2023-01-30T19:14:09.193Z,3.15
2023-01-30T19:16:37.195Z,1.70
2023-01-30T19:19:04.304Z,1.88
2023-01-30T19:21:31.453Z,2.70
2023-01-30T19:23:58.272Z,2.50
2023-01-30T19:26:25.960Z,2.00
2023-01-30T19:28:52.974Z,2.85
2023-01-30T19:31:21.883Z,2.22
2023-01-30T19:33:55.092Z,2.10
2023-01-30T19:36:23.348Z,3.13
2023-01-30T19:38:50.150Z,2.80
2023-01-30T19:41:29.195Z,3.40
2023-01-30T19:43:56.939Z,3.03
2023-01-30T19:46:23.687Z,2.90
2023-01-30T19:48:50.552Z,2.65
2023-01-30T19:51:20.666Z,3.03
2023-01-30T19:53:51.559Z,3.63
2023-01-30T19:56:21.897Z,3.35
2023-01-30T19:58:52.536Z,2.55
2023-01-30T20:01:20.870Z,2.13
2023-01-30T20:03:48.337Z,2.22
2023-01-30T20:06:20.667Z,2.42
2023-01-30T20:08:50.289Z,2.10
2023-01-30T20:11:18.774Z,2.00
2023-01-30T20:13:46.592Z,2.03
2023-01-30T20:16:15.785Z,2.92
2023-01-30T20:18:42.508Z,2.72
2023-01-30T20:21:11.500Z,2.28
2023-01-30T20:23:39.029Z,2.40
2023-01-30T20:26:07.383Z,2.35
2023-01-30T20:28:34.768Z,2.45
2023-01-30T20:31:08.250Z,2.00
2023-01-30T20:33:35.309Z,2.03
2023-01-30T20:36:03.803Z,2.30
2023-01-30T20:38:34.463Z,2.13
2023-01-30T20:41:18.554Z,2.58
2023-01-30T20:43:49.273Z,2.58
2023-01-30T20:46:21.706Z,2.10
2023-01-30T20:48:49.501Z,2.58
2023-01-30T20:51:23.820Z,2.25
2023-01-30T20:53:55.229Z,1.90
2023-01-30T20:56:23.831Z,2.42
2023-01-30T20:58:50.671Z,2.40
2023-01-30T21:01:23.273Z,2.55
2023-01-30T21:03:52.441Z,1.90
2023-01-30T21:06:37.057Z,1.55
2023-01-30T21:09:21.029Z,2.03
2023-01-30T21:11:49.223Z,1.83
2023-01-30T21:14:16.980Z,1.92
2023-01-30T21:16:43.999Z,2.75
2023-01-30T21:19:15.269Z,1.63
2023-01-30T21:21:54.458Z,1.73
2023-01-30T21:24:27.406Z,1.85
2023-01-30T21:26:54.968Z,1.27
2023-01-30T21:29:27.175Z,1.20
2023-01-30T21:31:56.623Z,2.08
2023-01-30T21:34:23.805Z,1.73
2023-01-30T21:37:09.491Z,1.38
2023-01-30T21:39:54.871Z,1.20
2023-01-30T21:42:40.496Z,1.38
2023-01-30T21:45:07.956Z,1.83
2023-01-30T21:47:34.588Z,1.58
2023-01-30T21:50:01.462Z,1.63
2023-01-30T21:52:28.258Z,1.65
2023-01-30T21:54:54.907Z,1.58
2023-01-30T21:57:23.745Z,1.80
2023-01-30T21:59:50.842Z,2.10
2023-01-30T22:02:17.511Z,2.20
2023-01-30T22:04:44.239Z,1.77
2023-01-30T22:07:10.937Z,1.90
2023-01-30T22:09:37.643Z,1.55
2023-01-30T22:12:04.721Z,2.03
2023-01-30T22:14:33.372Z,2.28
2023-01-30T22:17:00.190Z,2.72
2023-01-30T22:19:26.841Z,1.80
2023-01-30T22:21:53.819Z,2.15
2023-01-30T22:24:20.583Z,2.65
2023-01-30T22:26:47.535Z,3.15
2023-01-30T22:29:15.969Z,3.10
2023-01-30T22:31:42.820Z,3.63
2023-01-30T22:34:09.946Z,2.50
2023-01-30T22:36:38.356Z,3.35
2023-01-30T22:39:05.661Z,3.13
2023-01-30T22:41:34.996Z,3.15
2023-01-30T22:44:03.819Z,3.35
2023-01-30T22:46:32.813Z,2.10
2023-01-30T22:49:00.743Z,1.70
2023-01-30T22:51:30.173Z,1.65
2023-01-30T22:53:59.022Z,1.63
2023-01-30T22:56:40.657Z,1.60
2023-01-30T22:59:08.031Z,1.77
2023-01-30T23:01:37.171Z,1.40
2023-01-30T23:04:06.627Z,1.75
2023-01-30T23:06:33.934Z,1.70
2023-01-30T23:09:01.236Z,1.45
2023-01-30T23:11:34.968Z,2.10
2023-01-30T23:14:10.369Z,1.83
2023-01-30T23:16:39.169Z,1.73
2023-01-30T23:19:07.334Z,1.30
2023-01-30T23:21:40.305Z,1.92
2023-01-30T23:24:15.701Z,1.85
2023-01-30T23:26:48.136Z,2.15
2023-01-30T23:29:17.384Z,1.60
2023-01-30T23:31:45.115Z,1.58
2023-01-30T23:34:19.292Z,2.25
2023-01-30T23:39:14.289Z,1.50
2023-01-30T23:41:42.145Z,1.42
2023-01-30T23:44:09.713Z,1.65
2023-01-30T23:46:39.075Z,1.55
2023-01-30T23:49:08.428Z,1.83
2023-01-30T23:51:36.824Z,1.60
2023-01-30T23:54:04.559Z,2.05
2023-01-30T23:56:32.693Z,2.08
2023-01-30T23:58:59.386Z,1.35
